sensor_id;sensor_type;location;lat;lon;timestamp;pressure;altitude;pressure_sealevel;temperature;humidity
3102;BME280;1561;42.666;23.392;2024-01-07T00:00:11;93711.97;;;6.86;100.00
3102;BME280;1561;42.666;23.392;2024-01-07T00:02:39;93686.94;;;6.64;100.00
3102;BME280;1561;42.666;23.392;2024-01-07T00:05:09;93593.38;;;6.06;100.00
3102;BME280;1561;42.666;23.392;2024-01-07T00:07:41;93695.81;;;7.24;100.00
3102;BME280;1561;42.666;23.392;2024-01-07T00:10:22;93700.28;;;8.36;100.00
3102;BME280;1561;42.666;23.392;2024-01-07T00:12:49;93607.94;;;8.44;100.00
3102;BME280;1561;42.666;23.392;2024-01-07T00:15:17;93660.66;;;9.11;100.00
3102;BME280;1561;42.666;23.392;2024-01-07T00:17:45;93669.06;;;9.53;100.00
3102;BME280;1561;42.666;23.392;2024-01-07T00:20:13;93675.03;;;9.77;100.00
3102;BME280;1561;42.666;23.392;2024-01-07T00:22:47;93674.50;;;9.50;100.00
3102;BME280;1561;42.666;23.392;2024-01-07T00:25:16;93682.41;;;8.46;100.00
3102;BME280;1561;42.666;23.392;2024-01-07T00:27:45;93664.28;;;8.14;100.00
3102;BME280;1561;42.666;23.392;2024-01-07T00:30:12;93683.06;;;7.95;100.00
3102;BME280;1561;42.666;23.392;2024-01-07T00:32:43;93664.63;;;7.76;100.00
3102;BME280;1561;42.666;23.392;2024-01-07T00:35:11;93642.97;;;7.89;100.00
3102;BME280;1561;42.666;23.392;2024-01-07T00:37:38;93650.81;;;7.78;100.00
3102;BME280;1561;42.666;23.392;2024-01-07T00:40:07;93574.59;;;6.99;100.00
3102;BME280;1561;42.666;23.392;2024-01-07T00:42:42;93647.56;;;7.41;100.00
3102;BME280;1561;42.666;23.392;2024-01-07T00:45:09;93641.16;;;7.20;100.00
3102;BME280;1561;42.666;23.392;2024-01-07T00:47:37;93627.03;;;6.90;100.00
3102;BME280;1561;42.666;23.392;2024-01-07T00:50:06;93625.88;;;6.75;100.00
3102;BME280;1561;42.666;23.392;2024-01-07T00:52:34;93612.91;;;6.78;100.00
3102;BME280;1561;42.666;23.392;2024-01-07T00:55:03;93610.84;;;6.64;100.00
3102;BME280;1561;42.666;23.392;2024-01-07T00:57:32;93606.81;;;6.71;100.00
3102;BME280;1561;42.666;23.392;2024-01-07T01:00:05;93601.97;;;6.41;100.00
3102;BME280;1561;42.666;23.392;2024-01-07T01:02:37;93615.03;;;6.46;100.00
3102;BME280;1561;42.666;23.392;2024-01-07T01:05:07;93609.16;;;6.46;100.00
3102;BME280;1561;42.666;23.392;2024-01-07T01:07:35;93612.75;;;6.53;100.00
3102;BME280;1561;42.666;23.392;2024-01-07T01:10:04;93606.22;;;6.50;100.00
3102;BME280;1561;42.666;23.392;2024-01-07T01:12:34;93575.41;;;6.45;100.00
3102;BME280;1561;42.666;23.392;2024-01-07T01:15:05;93557.59;;;6.55;100.00
3102;BME280;1561;42.666;23.392;2024-01-07T01:17:32;93562.44;;;6.75;100.00
3102;BME280;1561;42.666;23.392;2024-01-07T01:20:00;93576.13;;;6.92;100.00
3102;BME280;1561;42.666;23.392;2024-01-07T01:22:27;93555.38;;;6.96;100.00
3102;BME280;1561;42.666;23.392;2024-01-07T01:24:56;93559.91;;;7.02;100.00
3102;BME280;1561;42.666;23.392;2024-01-07T01:27:24;93549.41;;;7.15;100.00
3102;BME280;1561;42.666;23.392;2024-01-07T01:29:51;93542.41;;;7.17;100.00
3102;BME280;1561;42.666;23.392;2024-01-07T01:32:23;93540.25;;;7.22;100.00
3102;BME280;1561;42.666;23.392;2024-01-07T01:34:54;93533.44;;;7.22;100.00
3102;BME280;1561;42.666;23.392;2024-01-07T01:37:22;93528.00;;;7.17;100.00
3102;BME280;1561;42.666;23.392;2024-01-07T01:39:51;93526.09;;;7.19;100.00
3102;BME280;1561;42.666;23.392;2024-01-07T01:42:18;93517.56;;;7.20;100.00
3102;BME280;1561;42.666;23.392;2024-01-07T01:44:46;93511.16;;;6.99;100.00
3102;BME280;1561;42.666;23.392;2024-01-07T01:47:15;93509.41;;;6.99;100.00
3102;BME280;1561;42.666;23.392;2024-01-07T01:49:47;93502.09;;;6.96;100.00
3102;BME280;1561;42.666;23.392;2024-01-07T01:52:21;93477.16;;;6.92;100.00
3102;BME280;1561;42.666;23.392;2024-01-07T01:54:50;93471.53;;;6.88;100.00
3102;BME280;1561;42.666;23.392;2024-01-07T01:57:22;93392.97;;;6.44;100.00
3102;BME280;1561;42.666;23.392;2024-01-07T01:59:59;93443.91;;;6.68;100.00
3102;BME280;1561;42.666;23.392;2024-01-07T02:02:30;93463.47;;;6.75;100.00
3102;BME280;1561;42.666;23.392;2024-01-07T02:05:04;93457.34;;;6.95;100.00
3102;BME280;1561;42.666;23.392;2024-01-07T02:07:34;93468.22;;;7.05;100.00
3102;BME280;1561;42.666;23.392;2024-01-07T02:10:02;93486.50;;;7.09;100.00
3102;BME280;1561;42.666;23.392;2024-01-07T02:12:30;93473.31;;;7.23;100.00
3102;BME280;1561;42.666;23.392;2024-01-07T02:14:58;93473.97;;;7.50;100.00
3102;BME280;1561;42.666;23.392;2024-01-07T02:17:26;93445.78;;;7.18;100.00
3102;BME280;1561;42.666;23.392;2024-01-07T02:19:53;93444.41;;;7.24;100.00
3102;BME280;1561;42.666;23.392;2024-01-07T02:22:23;93438.72;;;7.47;100.00
3102;BME280;1561;42.666;23.392;2024-01-07T02:24:53;93430.56;;;7.18;100.00
3102;BME280;1561;42.666;23.392;2024-01-07T02:27:22;93410.16;;;7.02;100.00
3102;BME280;1561;42.666;23.392;2024-01-07T02:29:53;93321.22;;;6.51;100.00
3102;BME280;1561;42.666;23.392;2024-01-07T02:32:21;93401.16;;;6.90;100.00
3102;BME280;1561;42.666;23.392;2024-01-07T02:34:51;93362.97;;;7.17;100.00
3102;BME280;1561;42.666;23.392;2024-01-07T02:37:19;93372.31;;;8.01;100.00
3102;BME280;1561;42.666;23.392;2024-01-07T02:39:48;93379.44;;;7.64;100.00
3102;BME280;1561;42.666;23.392;2024-01-07T02:42:25;93386.22;;;7.56;100.00
3102;BME280;1561;42.666;23.392;2024-01-07T02:44:52;93381.19;;;7.97;100.00
3102;BME280;1561;42.666;23.392;2024-01-07T02:47:20;93382.28;;;7.95;100.00
3102;BME280;1561;42.666;23.392;2024-01-07T02:49:50;93388.00;;;8.22;100.00
3102;BME280;1561;42.666;23.392;2024-01-07T02:52:17;93353.28;;;8.13;100.00
3102;BME280;1561;42.666;23.392;2024-01-07T02:54:49;93380.63;;;8.77;100.00
3102;BME280;1561;42.666;23.392;2024-01-07T02:57:20;93373.94;;;8.68;100.00
3102;BME280;1561;42.666;23.392;2024-01-07T02:59:50;93389.69;;;9.52;100.00
3102;BME280;1561;42.666;23.392;2024-01-07T03:02:22;93415.50;;;8.93;100.00
3102;BME280;1561;42.666;23.392;2024-01-07T03:04:54;93391.56;;;9.58;100.00
3102;BME280;1561;42.666;23.392;2024-01-07T03:07:25;93394.50;;;10.01;100.00
3102;BME280;1561;42.666;23.392;2024-01-07T03:09:53;93397.16;;;9.61;100.00
3102;BME280;1561;42.666;23.392;2024-01-07T03:12:26;93393.00;;;9.60;100.00
3102;BME280;1561;42.666;23.392;2024-01-07T03:14:53;93394.06;;;9.90;100.00
3102;BME280;1561;42.666;23.392;2024-01-07T03:17:21;93391.63;;;10.04;100.00
3102;BME280;1561;42.666;23.392;2024-01-07T03:19:50;93401.06;;;9.96;100.00
3102;BME280;1561;42.666;23.392;2024-01-07T03:22:18;93406.31;;;10.10;100.00
3102;BME280;1561;42.666;23.392;2024-01-07T03:24:48;93416.50;;;10.10;100.00
3102;BME280;1561;42.666;23.392;2024-01-07T03:27:23;93415.41;;;10.05;100.00
3102;BME280;1561;42.666;23.392;2024-01-07T03:29:50;93415.91;;;9.92;100.00
3102;BME280;1561;42.666;23.392;2024-01-07T03:32:19;93309.78;;;9.29;100.00
3102;BME280;1561;42.666;23.392;2024-01-07T03:34:50;93411.13;;;10.05;100.00
3102;BME280;1561;42.666;23.392;2024-01-07T03:37:22;93415.31;;;9.74;100.00
3102;BME280;1561;42.666;23.392;2024-01-07T03:39:50;93325.09;;;9.21;100.00
3102;BME280;1561;42.666;23.392;2024-01-07T03:42:23;93407.16;;;9.71;100.00
3102;BME280;1561;42.666;23.392;2024-01-07T03:44:57;93408.19;;;9.06;100.00
3102;BME280;1561;42.666;23.392;2024-01-07T03:47:26;93401.94;;;8.84;100.00
3102;BME280;1561;42.666;23.392;2024-01-07T03:49:55;93312.19;;;7.84;100.00
3102;BME280;1561;42.666;23.392;2024-01-07T03:52:30;93396.41;;;8.23;100.00
3102;BME280;1561;42.666;23.392;2024-01-07T03:54:59;93381.66;;;8.01;100.00
3102;BME280;1561;42.666;23.392;2024-01-07T03:57:47;93383.88;;;7.96;100.00
3102;BME280;1561;42.666;23.392;2024-01-07T04:00:21;93376.41;;;7.94;100.00
3102;BME280;1561;42.666;23.392;2024-01-07T04:02:50;93387.09;;;8.06;100.00
3102;BME280;1561;42.666;23.392;2024-01-07T04:05:18;93379.44;;;8.06;100.00
3102;BME280;1561;42.666;23.392;2024-01-07T04:07:56;93379.06;;;7.51;100.00
3102;BME280;1561;42.666;23.392;2024-01-07T04:10:25;93358.63;;;7.61;100.00
3102;BME280;1561;42.666;23.392;2024-01-07T04:13:10;93356.06;;;7.86;100.00
3102;BME280;1561;42.666;23.392;2024-01-07T04:15:42;93359.56;;;7.93;100.00
3102;BME280;1561;42.666;23.392;2024-01-07T04:18:14;93294.81;;;7.30;100.00
3102;BME280;1561;42.666;23.392;2024-01-07T04:20:49;93338.41;;;7.51;100.00
3102;BME280;1561;42.666;23.392;2024-01-07T04:23:18;93360.63;;;7.83;100.00
3102;BME280;1561;42.666;23.392;2024-01-07T04:25:51;93354.97;;;7.63;100.00
3102;BME280;1561;42.666;23.392;2024-01-07T04:28:23;93355.69;;;7.73;100.00
3102;BME280;1561;42.666;23.392;2024-01-07T04:30:50;93347.19;;;7.98;100.00
3102;BME280;1561;42.666;23.392;2024-01-07T04:33:19;93342.28;;;8.05;100.00
3102;BME280;1561;42.666;23.392;2024-01-07T04:35:51;93306.84;;;7.95;100.00
3102;BME280;1561;42.666;23.392;2024-01-07T04:38:28;93332.88;;;7.97;100.00
3102;BME280;1561;42.666;23.392;2024-01-07T04:41:01;93328.78;;;7.63;100.00
3102;BME280;1561;42.666;23.392;2024-01-07T04:43:36;93331.47;;;7.61;100.00
3102;BME280;1561;42.666;23.392;2024-01-07T04:46:06;93322.97;;;7.78;100.00
3102;BME280;1561;42.666;23.392;2024-01-07T04:48:58;93322.81;;;7.80;100.00
3102;BME280;1561;42.666;23.392;2024-01-07T04:51:27;93317.47;;;7.57;100.00
3102;BME280;1561;42.666;23.392;2024-01-07T04:54:02;93336.06;;;7.58;100.00
3102;BME280;1561;42.666;23.392;2024-01-07T04:56:55;93338.28;;;7.27;100.00
3102;BME280;1561;42.666;23.392;2024-01-07T04:59:40;93325.94;;;7.07;100.00
3102;BME280;1561;42.666;23.392;2024-01-07T05:02:14;93330.19;;;7.06;100.00
3102;BME280;1561;42.666;23.392;2024-01-07T05:04:42;93325.22;;;6.97;100.00
3102;BME280;1561;42.666;23.392;2024-01-07T05:07:14;93333.06;;;7.03;100.00
3102;BME280;1561;42.666;23.392;2024-01-07T05:09:45;93319.50;;;6.95;100.00
3102;BME280;1561;42.666;23.392;2024-01-07T05:12:21;93316.66;;;6.72;100.00
3102;BME280;1561;42.666;23.392;2024-01-07T05:15:25;93308.56;;;6.94;100.00
3102;BME280;1561;42.666;23.392;2024-01-07T05:17:59;93315.47;;;7.10;100.00
3102;BME280;1561;42.666;23.392;2024-01-07T05:20:39;93290.34;;;7.24;100.00
3102;BME280;1561;42.666;23.392;2024-01-07T05:23:11;93315.75;;;7.32;100.00
3102;BME280;1561;42.666;23.392;2024-01-07T05:25:46;93307.34;;;7.06;100.00
3102;BME280;1561;42.666;23.392;2024-01-07T05:28:25;93321.50;;;7.09;100.00
3102;BME280;1561;42.666;23.392;2024-01-07T05:31:00;93333.88;;;7.12;100.00
3102;BME280;1561;42.666;23.392;2024-01-07T05:33:30;93291.75;;;6.93;100.00
3102;BME280;1561;42.666;23.392;2024-01-07T05:36:13;93249.84;;;6.89;100.00
3102;BME280;1561;42.666;23.392;2024-01-07T05:38:44;93301.38;;;7.41;100.00
3102;BME280;1561;42.666;23.392;2024-01-07T05:41:18;93309.25;;;7.30;100.00
3102;BME280;1561;42.666;23.392;2024-01-07T05:43:50;93306.69;;;7.30;100.00
3102;BME280;1561;42.666;23.392;2024-01-07T05:46:22;93311.19;;;7.36;100.00
3102;BME280;1561;42.666;23.392;2024-01-07T05:48:55;93327.00;;;7.55;100.00
3102;BME280;1561;42.666;23.392;2024-01-07T05:51:25;93325.19;;;7.40;100.00
3102;BME280;1561;42.666;23.392;2024-01-07T05:54:00;93322.28;;;7.35;100.00
3102;BME280;1561;42.666;23.392;2024-01-07T05:56:28;93330.75;;;7.43;100.00
3102;BME280;1561;42.666;23.392;2024-01-07T05:59:02;93332.41;;;7.27;100.00
3102;BME280;1561;42.666;23.392;2024-01-07T06:01:37;93338.94;;;7.29;100.00
3102;BME280;1561;42.666;23.392;2024-01-07T06:04:14;93283.97;;;7.20;100.00
3102;BME280;1561;42.666;23.392;2024-01-07T06:06:45;93266.63;;;7.16;100.00
3102;BME280;1561;42.666;23.392;2024-01-07T06:09:15;93312.34;;;7.49;100.00
3102;BME280;1561;42.666;23.392;2024-01-07T06:11:52;93315.28;;;7.62;100.00
3102;BME280;1561;42.666;23.392;2024-01-07T06:14:40;93279.28;;;7.41;100.00
3102;BME280;1561;42.666;23.392;2024-01-07T06:17:22;93303.00;;;7.50;100.00
3102;BME280;1561;42.666;23.392;2024-01-07T06:19:57;93240.00;;;7.20;100.00
3102;BME280;1561;42.666;23.392;2024-01-07T06:22:28;93273.34;;;7.58;100.00
3102;BME280;1561;42.666;23.392;2024-01-07T06:25:03;93312.00;;;7.78;100.00
3102;BME280;1561;42.666;23.392;2024-01-07T06:27:39;93299.91;;;7.72;100.00
3102;BME280;1561;42.666;23.392;2024-01-07T06:30:11;93301.66;;;7.71;100.00
3102;BME280;1561;42.666;23.392;2024-01-07T06:32:57;93307.63;;;7.96;100.00
3102;BME280;1561;42.666;23.392;2024-01-07T06:35:26;93306.56;;;7.65;100.00
3102;BME280;1561;42.666;23.392;2024-01-07T06:38:02;93317.56;;;7.81;100.00
3102;BME280;1561;42.666;23.392;2024-01-07T06:40:45;93322.34;;;7.84;100.00
3102;BME280;1561;42.666;23.392;2024-01-07T06:43:28;93310.09;;;7.72;100.00
3102;BME280;1561;42.666;23.392;2024-01-07T06:46:03;93324.22;;;7.74;100.00
3102;BME280;1561;42.666;23.392;2024-01-07T06:48:41;93340.00;;;7.86;100.00
3102;BME280;1561;42.666;23.392;2024-01-07T06:51:14;93348.31;;;8.04;100.00
3102;BME280;1561;42.666;23.392;2024-01-07T06:53:44;93339.66;;;8.22;100.00
3102;BME280;1561;42.666;23.392;2024-01-07T06:56:19;93334.59;;;8.38;100.00
3102;BME280;1561;42.666;23.392;2024-01-07T06:58:48;93264.09;;;7.99;100.00
3102;BME280;1561;42.666;23.392;2024-01-07T07:01:25;93299.56;;;8.16;100.00
3102;BME280;1561;42.666;23.392;2024-01-07T07:03:56;93242.59;;;7.69;100.00
3102;BME280;1561;42.666;23.392;2024-01-07T07:06:55;93347.34;;;8.54;100.00
3102;BME280;1561;42.666;23.392;2024-01-07T07:09:30;93344.22;;;8.84;100.00
3102;BME280;1561;42.666;23.392;2024-01-07T07:12:03;93345.16;;;8.75;100.00
3102;BME280;1561;42.666;23.392;2024-01-07T07:14:34;93337.03;;;8.80;100.00
3102;BME280;1561;42.666;23.392;2024-01-07T07:17:03;93288.81;;;8.78;100.00
3102;BME280;1561;42.666;23.392;2024-01-07T07:19:38;93313.47;;;9.26;100.00
3102;BME280;1561;42.666;23.392;2024-01-07T07:22:07;93310.16;;;9.02;100.00
3102;BME280;1561;42.666;23.392;2024-01-07T07:24:34;93302.72;;;9.55;100.00
3102;BME280;1561;42.666;23.392;2024-01-07T07:27:04;93331.69;;;9.54;100.00
3102;BME280;1561;42.666;23.392;2024-01-07T07:29:31;93338.50;;;9.69;100.00
3102;BME280;1561;42.666;23.392;2024-01-07T07:32:00;93334.88;;;9.56;100.00
3102;BME280;1561;42.666;23.392;2024-01-07T07:34:29;93350.19;;;10.02;100.00
3102;BME280;1561;42.666;23.392;2024-01-07T07:37:01;93349.03;;;10.21;100.00
3102;BME280;1561;42.666;23.392;2024-01-07T07:39:30;93347.91;;;9.69;100.00
3102;BME280;1561;42.666;23.392;2024-01-07T07:41:57;93335.75;;;10.25;100.00
3102;BME280;1561;42.666;23.392;2024-01-07T07:44:25;93354.97;;;10.44;100.00
3102;BME280;1561;42.666;23.392;2024-01-07T07:46:55;93365.06;;;10.60;100.00
3102;BME280;1561;42.666;23.392;2024-01-07T07:49:22;93343.66;;;10.08;100.00
3102;BME280;1561;42.666;23.392;2024-01-07T07:51:50;93355.59;;;10.15;100.00
3102;BME280;1561;42.666;23.392;2024-01-07T07:54:21;93334.72;;;10.12;100.00
3102;BME280;1561;42.666;23.392;2024-01-07T07:56:52;93356.22;;;10.70;100.00
3102;BME280;1561;42.666;23.392;2024-01-07T07:59:22;93284.81;;;10.09;100.00
3102;BME280;1561;42.666;23.392;2024-01-07T08:01:50;93347.63;;;10.71;100.00
3102;BME280;1561;42.666;23.392;2024-01-07T08:04:32;93347.25;;;10.21;100.00
3102;BME280;1561;42.666;23.392;2024-01-07T08:07:08;93344.91;;;10.42;100.00
3102;BME280;1561;42.666;23.392;2024-01-07T08:09:43;93348.75;;;10.38;100.00
3102;BME280;1561;42.666;23.392;2024-01-07T08:12:32;93340.38;;;10.30;100.00
3102;BME280;1561;42.666;23.392;2024-01-07T08:15:15;93344.56;;;10.15;100.00
3102;BME280;1561;42.666;23.392;2024-01-07T08:17:45;93349.78;;;10.29;100.00
3102;BME280;1561;42.666;23.392;2024-01-07T08:20:21;93344.91;;;10.42;100.00
3102;BME280;1561;42.666;23.392;2024-01-07T08:22:54;93348.53;;;10.56;100.00
3102;BME280;1561;42.666;23.392;2024-01-07T08:25:48;93352.31;;;10.29;100.00
3102;BME280;1561;42.666;23.392;2024-01-07T08:28:32;93347.66;;;10.33;100.00
3102;BME280;1561;42.666;23.392;2024-01-07T08:34:13;93347.16;;;10.07;100.00
3102;BME280;1561;42.666;23.392;2024-01-07T08:37:01;93291.34;;;10.12;100.00
3102;BME280;1561;42.666;23.392;2024-01-07T08:39:41;93342.31;;;10.20;100.00
3102;BME280;1561;42.666;23.392;2024-01-07T08:42:10;93348.94;;;9.98;100.00
3102;BME280;1561;42.666;23.392;2024-01-07T08:44:46;93330.63;;;9.95;100.00
3102;BME280;1561;42.666;23.392;2024-01-07T08:47:16;93302.50;;;9.64;100.00
3102;BME280;1561;42.666;23.392;2024-01-07T08:49:48;93323.66;;;9.81;100.00
3102;BME280;1561;42.666;23.392;2024-01-07T08:52:19;93318.84;;;11.14;100.00
3102;BME280;1561;42.666;23.392;2024-01-07T08:54:56;93321.22;;;12.46;100.00
3102;BME280;1561;42.666;23.392;2024-01-07T08:57:34;93337.09;;;14.36;100.00
3102;BME280;1561;42.666;23.392;2024-01-07T09:00:02;93351.66;;;13.61;100.00
3102;BME280;1561;42.666;23.392;2024-01-07T09:02:31;93350.66;;;12.71;100.00
3102;BME280;1561;42.666;23.392;2024-01-07T09:05:05;93324.38;;;11.55;100.00
3102;BME280;1561;42.666;23.392;2024-01-07T09:07:35;93333.16;;;11.60;100.00
3102;BME280;1561;42.666;23.392;2024-01-07T09:10:02;93343.41;;;11.01;100.00
3102;BME280;1561;42.666;23.392;2024-01-07T09:12:39;93341.25;;;11.12;100.00
3102;BME280;1561;42.666;23.392;2024-01-07T09:15:07;93338.69;;;11.12;100.00
3102;BME280;1561;42.666;23.392;2024-01-07T09:17:53;93341.84;;;11.51;100.00
3102;BME280;1561;42.666;23.392;2024-01-07T09:20:23;93332.09;;;11.69;100.00
3102;BME280;1561;42.666;23.392;2024-01-07T09:22:50;93278.97;;;11.57;100.00
3102;BME280;1561;42.666;23.392;2024-01-07T09:25:17;93329.84;;;12.60;100.00
3102;BME280;1561;42.666;23.392;2024-01-07T09:27:46;93247.72;;;13.78;100.00
3102;BME280;1561;42.666;23.392;2024-01-07T09:30:19;93333.75;;;14.01;100.00
3102;BME280;1561;42.666;23.392;2024-01-07T09:32:49;93355.84;;;14.90;100.00
3102;BME280;1561;42.666;23.392;2024-01-07T09:35:19;93349.41;;;15.52;100.00
3102;BME280;1561;42.666;23.392;2024-01-07T09:37:51;93345.53;;;14.83;100.00
3102;BME280;1561;42.666;23.392;2024-01-07T09:40:20;93335.94;;;15.37;100.00
3102;BME280;1561;42.666;23.392;2024-01-07T09:42:51;93325.22;;;13.94;100.00
3102;BME280;1561;42.666;23.392;2024-01-07T09:45:18;93315.84;;;15.98;100.00
3102;BME280;1561;42.666;23.392;2024-01-07T09:47:50;93331.19;;;15.41;100.00
3102;BME280;1561;42.666;23.392;2024-01-07T09:50:26;93334.09;;;14.86;100.00
3102;BME280;1561;42.666;23.392;2024-01-07T09:52:56;93330.72;;;16.02;100.00
3102;BME280;1561;42.666;23.392;2024-01-07T09:55:32;93329.09;;;16.72;100.00
3102;BME280;1561;42.666;23.392;2024-01-07T09:58:05;93336.03;;;17.40;100.00
3102;BME280;1561;42.666;23.392;2024-01-07T10:00:33;93330.66;;;18.62;100.00
3102;BME280;1561;42.666;23.392;2024-01-07T10:03:01;93326.03;;;19.53;94.91
3102;BME280;1561;42.666;23.392;2024-01-07T10:05:28;93209.50;;;18.00;97.83
3102;BME280;1561;42.666;23.392;2024-01-07T10:08:00;93334.09;;;16.60;100.00
3102;BME280;1561;42.666;23.392;2024-01-07T10:10:33;93338.72;;;15.49;100.00
3102;BME280;1561;42.666;23.392;2024-01-07T10:13:09;93338.66;;;14.30;100.00
3102;BME280;1561;42.666;23.392;2024-01-07T10:15:40;93331.53;;;14.32;100.00
3102;BME280;1561;42.666;23.392;2024-01-07T10:18:08;93311.31;;;13.48;100.00
3102;BME280;1561;42.666;23.392;2024-01-07T10:20:40;93285.28;;;13.51;100.00
3102;BME280;1561;42.666;23.392;2024-01-07T10:23:11;93309.25;;;13.10;100.00
3102;BME280;1561;42.666;23.392;2024-01-07T10:25:45;93313.34;;;13.04;100.00
3102;BME280;1561;42.666;23.392;2024-01-07T10:28:25;93301.28;;;12.63;100.00
3102;BME280;1561;42.666;23.392;2024-01-07T10:30:55;93293.41;;;13.00;100.00
3102;BME280;1561;42.666;23.392;2024-01-07T10:33:25;93233.19;;;12.68;100.00
3102;BME280;1561;42.666;23.392;2024-01-07T10:36:01;93254.63;;;12.25;100.00
3102;BME280;1561;42.666;23.392;2024-01-07T10:38:33;93282.84;;;12.32;100.00
3102;BME280;1561;42.666;23.392;2024-01-07T10:41:02;93290.03;;;12.22;100.00
3102;BME280;1561;42.666;23.392;2024-01-07T10:43:39;93272.72;;;11.88;100.00
3102;BME280;1561;42.666;23.392;2024-01-07T10:46:15;93243.38;;;11.55;100.00
3102;BME280;1561;42.666;23.392;2024-01-07T10:48:50;93243.19;;;11.86;100.00
3102;BME280;1561;42.666;23.392;2024-01-07T10:51:38;93273.28;;;11.84;100.00
3102;BME280;1561;42.666;23.392;2024-01-07T10:54:08;93253.59;;;11.55;100.00
3102;BME280;1561;42.666;23.392;2024-01-07T10:56:46;93273.28;;;11.69;100.00
3102;BME280;1561;42.666;23.392;2024-01-07T10:59:24;93290.72;;;11.80;100.00
3102;BME280;1561;42.666;23.392;2024-01-07T11:02:07;93307.50;;;12.54;100.00
3102;BME280;1561;42.666;23.392;2024-01-07T11:04:43;93225.94;;;12.30;100.00
3102;BME280;1561;42.666;23.392;2024-01-07T11:07:28;93278.78;;;12.37;100.00
3102;BME280;1561;42.666;23.392;2024-01-07T11:10:18;93255.41;;;11.90;100.00
3102;BME280;1561;42.666;23.392;2024-01-07T11:12:55;93272.94;;;12.22;100.00
3102;BME280;1561;42.666;23.392;2024-01-07T11:15:56;93272.03;;;12.15;100.00
3102;BME280;1561;42.666;23.392;2024-01-07T11:18:26;93277.53;;;12.12;100.00
3102;BME280;1561;42.666;23.392;2024-01-07T11:21:03;93249.31;;;12.06;100.00
3102;BME280;1561;42.666;23.392;2024-01-07T11:23:43;93228.25;;;12.25;100.00
3102;BME280;1561;42.666;23.392;2024-01-07T11:26:17;93275.81;;;12.55;100.00
3102;BME280;1561;42.666;23.392;2024-01-07T11:28:57;93283.00;;;12.66;100.00
3102;BME280;1561;42.666;23.392;2024-01-07T11:31:47;93269.53;;;12.36;100.00
3102;BME280;1561;42.666;23.392;2024-01-07T11:34:40;93275.44;;;12.37;100.00
3102;BME280;1561;42.666;23.392;2024-01-07T11:37:10;93263.34;;;12.94;100.00
3102;BME280;1561;42.666;23.392;2024-01-07T11:39:42;93246.88;;;13.03;100.00
3102;BME280;1561;42.666;23.392;2024-01-07T11:42:13;93269.22;;;12.88;100.00
3102;BME280;1561;42.666;23.392;2024-01-07T11:44:47;93275.38;;;12.93;100.00
3102;BME280;1561;42.666;23.392;2024-01-07T11:47:17;93281.75;;;12.97;100.00
3102;BME280;1561;42.666;23.392;2024-01-07T11:49:46;93277.38;;;13.19;100.00
3102;BME280;1561;42.666;23.392;2024-01-07T11:52:14;93248.78;;;12.94;100.00
3102;BME280;1561;42.666;23.392;2024-01-07T11:54:42;93282.69;;;13.17;100.00
3102;BME280;1561;42.666;23.392;2024-01-07T11:57:13;93264.59;;;12.77;100.00
3102;BME280;1561;42.666;23.392;2024-01-07T11:59:43;93277.25;;;12.85;100.00
3102;BME280;1561;42.666;23.392;2024-01-07T12:02:13;93274.59;;;12.72;100.00
3102;BME280;1561;42.666;23.392;2024-01-07T12:04:45;93276.84;;;12.81;100.00
3102;BME280;1561;42.666;23.392;2024-01-07T12:07:13;93251.91;;;12.90;100.00
3102;BME280;1561;42.666;23.392;2024-01-07T12:09:44;93252.63;;;13.05;100.00
3102;BME280;1561;42.666;23.392;2024-01-07T12:12:14;93234.03;;;13.24;100.00
3102;BME280;1561;42.666;23.392;2024-01-07T12:14:42;93269.31;;;13.56;100.00
3102;BME280;1561;42.666;23.392;2024-01-07T12:17:12;93271.88;;;13.22;100.00
3102;BME280;1561;42.666;23.392;2024-01-07T12:19:40;93273.81;;;12.92;100.00
3102;BME280;1561;42.666;23.392;2024-01-07T12:22:12;93274.00;;;13.18;100.00
3102;BME280;1561;42.666;23.392;2024-01-07T12:24:47;93275.56;;;13.13;100.00
3102;BME280;1561;42.666;23.392;2024-01-07T12:27:28;93284.00;;;12.86;100.00
3102;BME280;1561;42.666;23.392;2024-01-07T12:29:56;93269.53;;;12.57;100.00
3102;BME280;1561;42.666;23.392;2024-01-07T12:32:27;93289.06;;;12.58;100.00
3102;BME280;1561;42.666;23.392;2024-01-07T12:35:07;93280.06;;;12.48;100.00
3102;BME280;1561;42.666;23.392;2024-01-07T12:37:55;93282.28;;;12.72;100.00
3102;BME280;1561;42.666;23.392;2024-01-07T12:40:25;93285.47;;;12.74;100.00
3102;BME280;1561;42.666;23.392;2024-01-07T12:42:52;93283.13;;;12.79;100.00
3102;BME280;1561;42.666;23.392;2024-01-07T12:45:22;93273.88;;;12.78;100.00
3102;BME280;1561;42.666;23.392;2024-01-07T12:47:53;93285.44;;;12.95;100.00
3102;BME280;1561;42.666;23.392;2024-01-07T12:50:26;93275.44;;;12.79;100.00
3102;BME280;1561;42.666;23.392;2024-01-07T12:53:00;93282.34;;;12.99;100.00
3102;BME280;1561;42.666;23.392;2024-01-07T12:55:28;93277.72;;;12.67;100.00
3102;BME280;1561;42.666;23.392;2024-01-07T12:57:56;93290.13;;;12.91;100.00
3102;BME280;1561;42.666;23.392;2024-01-07T13:00:28;93280.88;;;12.90;100.00
3102;BME280;1561;42.666;23.392;2024-01-07T13:03:03;93285.47;;;12.74;100.00
3102;BME280;1561;42.666;23.392;2024-01-07T13:05:32;93296.09;;;12.56;100.00
3102;BME280;1561;42.666;23.392;2024-01-07T13:08:06;93290.50;;;12.46;100.00
3102;BME280;1561;42.666;23.392;2024-01-07T13:10:35;93295.09;;;12.15;100.00
3102;BME280;1561;42.666;23.392;2024-01-07T13:13:04;93277.66;;;12.04;100.00
3102;BME280;1561;42.666;23.392;2024-01-07T13:15:33;93301.06;;;12.37;100.00
3102;BME280;1561;42.666;23.392;2024-01-07T13:18:02;93297.34;;;12.60;100.00
3102;BME280;1561;42.666;23.392;2024-01-07T13:20:34;93290.75;;;12.72;100.00
3102;BME280;1561;42.666;23.392;2024-01-07T13:23:14;93292.16;;;12.75;100.00
3102;BME280;1561;42.666;23.392;2024-01-07T13:25:43;93160.69;;;11.63;100.00
3102;BME280;1561;42.666;23.392;2024-01-07T13:28:11;93288.44;;;12.56;100.00
3102;BME280;1561;42.666;23.392;2024-01-07T13:30:42;93298.97;;;12.89;100.00
3102;BME280;1561;42.666;23.392;2024-01-07T13:33:15;93290.91;;;13.06;100.00
3102;BME280;1561;42.666;23.392;2024-01-07T13:35:44;93304.28;;;12.45;100.00